createdAt,value
2023-01-30T00:01:43.437Z,26.80
2023-01-30T00:04:17.215Z,26.10
2023-01-30T00:06:44.969Z,23.10
2023-01-30T00:09:14.874Z,20.98
2023-01-30T00:11:42.643Z,22.80
2023-01-30T00:14:10.236Z,21.95
2023-01-30T00:16:38.046Z,20.90
2023-01-30T00:19:05.728Z,18.27
2023-01-30T00:21:33.288Z,22.45
2023-01-30T00:24:01.132Z,17.70
2023-01-30T00:26:28.750Z,18.60
2023-01-30T00:28:56.488Z,21.30
2023-01-30T00:31:24.329Z,20.55
2023-01-30T00:33:51.883Z,16.70
2023-01-30T00:36:19.448Z,15.53
2023-01-30T00:38:47.236Z,15.07
2023-01-30T00:41:15.414Z,15.18
2023-01-30T00:44:01.541Z,16.15
2023-01-30T00:46:50.620Z,16.60
2023-01-30T00:49:18.708Z,17.77
2023-01-30T00:51:46.682Z,14.23
2023-01-30T00:54:14.255Z,13.95
2023-01-30T00:56:41.835Z,15.60
2023-01-30T00:59:09.648Z,16.62
2023-01-30T01:01:37.987Z,17.70
2023-01-30T01:04:06.997Z,14.15
2023-01-30T01:06:34.891Z,19.33
2023-01-30T01:09:03.236Z,13.52
2023-01-30T01:11:30.911Z,15.23
2023-01-30T01:14:00.993Z,16.73
2023-01-30T01:16:30.542Z,18.73
2023-01-30T01:18:59.671Z,14.13
2023-01-30T01:21:27.673Z,13.52
2023-01-30T01:23:58.855Z,15.45
2023-01-30T01:26:27.652Z,15.73
2023-01-30T01:28:59.714Z,19.92
2023-01-30T01:31:27.985Z,19.23
2023-01-30T01:33:56.245Z,16.15
2023-01-30T01:39:13.808Z,17.83
2023-01-30T01:41:42.577Z,16.58
2023-01-30T01:44:11.952Z,17.85
2023-01-30T01:47:00.049Z,14.57
2023-01-30T01:49:37.613Z,16.55
2023-01-30T01:52:11.859Z,14.90
2023-01-30T01:54:45.529Z,14.00
2023-01-30T01:57:20.091Z,15.73
2023-01-30T01:59:55.846Z,14.43
2023-01-30T02:02:24.135Z,17.12
2023-01-30T02:05:03.088Z,16.07
2023-01-30T02:07:54.709Z,16.35
2023-01-30T02:10:27.912Z,13.50
2023-01-30T02:12:55.757Z,16.75
2023-01-30T02:15:23.335Z,16.23
2023-01-30T02:17:53.593Z,16.77
2023-01-30T02:20:39.950Z,13.48
2023-01-30T02:23:35.670Z,17.75
2023-01-30T02:26:25.408Z,19.75
2023-01-30T02:29:08.240Z,23.60
2023-01-30T02:32:22.721Z,16.27
2023-01-30T02:35:00.131Z,21.77
2023-01-30T02:37:47.336Z,18.10
2023-01-30T02:40:30.059Z,13.00
2023-01-30T02:43:02.881Z,16.58
2023-01-30T02:45:30.504Z,16.60
2023-01-30T02:48:03.222Z,16.87
2023-01-30T02:50:36.610Z,12.60
2023-01-30T02:53:06.210Z,13.10
2023-01-30T02:55:33.903Z,15.82
2023-01-30T02:58:03.904Z,14.13
2023-01-30T03:00:53.313Z,14.10
2023-01-30T03:03:53.899Z,12.35
2023-01-30T03:06:42.746Z,16.27
2023-01-30T03:09:22.444Z,11.95
2023-01-30T03:12:02.865Z,15.00
2023-01-30T03:14:55.470Z,14.57
2023-01-30T03:17:26.952Z,14.25
2023-01-30T03:19:55.699Z,14.93
2023-01-30T03:22:23.533Z,12.25
2023-01-30T03:24:53.726Z,13.43
2023-01-30T03:27:22.765Z,15.40
2023-01-30T03:29:50.602Z,15.90
2023-01-30T03:32:18.151Z,13.52
2023-01-30T03:34:45.801Z,13.52
2023-01-30T03:37:13.679Z,13.77
2023-01-30T03:39:41.304Z,13.85
2023-01-30T03:42:09.049Z,15.07
2023-01-30T03:44:37.618Z,15.48
2023-01-30T03:47:05.249Z,14.95
2023-01-30T03:49:32.781Z,12.93
2023-01-30T03:52:00.706Z,13.57
2023-01-30T03:54:28.727Z,15.23
2023-01-30T03:56:56.240Z,15.82
2023-01-30T03:59:24.248Z,15.35
2023-01-30T04:01:52.232Z,14.33
2023-01-30T04:04:20.128Z,14.23
2023-01-30T04:06:48.758Z,16.80
2023-01-30T04:09:16.388Z,12.50
2023-01-30T04:11:44.856Z,14.57
2023-01-30T04:14:12.618Z,14.57
2023-01-30T04:16:40.891Z,15.55
2023-01-30T04:19:12.093Z,16.08
2023-01-30T04:21:40.024Z,15.25
2023-01-30T04:24:07.773Z,16.87
2023-01-30T04:26:35.645Z,13.63
2023-01-30T04:29:03.213Z,14.70
2023-01-30T04:31:31.031Z,15.05
2023-01-30T04:33:59.268Z,13.55
2023-01-30T04:36:29.270Z,15.43
2023-01-30T04:38:58.295Z,14.40
2023-01-30T04:41:26.483Z,14.48
2023-01-30T04:43:54.370Z,17.25
2023-01-30T04:46:22.099Z,14.38
2023-01-30T04:48:50.228Z,12.37
2023-01-30T04:51:17.794Z,13.50
2023-01-30T04:53:45.345Z,14.93
2023-01-30T04:56:14.185Z,13.07
2023-01-30T04:58:41.865Z,14.52
2023-01-30T05:01:26.149Z,28.05
2023-01-30T05:03:55.416Z,40.27
2023-01-30T05:06:23.620Z,31.25
2023-01-30T05:08:52.629Z,18.98
2023-01-30T05:11:21.839Z,14.80
2023-01-30T05:13:49.767Z,13.05
2023-01-30T05:16:18.862Z,15.63
2023-01-30T05:18:46.952Z,14.50
2023-01-30T05:21:20.293Z,17.23
2023-01-30T05:23:48.700Z,13.82
2023-01-30T05:26:16.567Z,15.38
2023-01-30T05:28:44.135Z,13.40
2023-01-30T05:31:14.130Z,14.95
2023-01-30T05:33:41.880Z,12.57
2023-01-30T05:36:14.707Z,16.75
2023-01-30T05:38:44.255Z,15.45
2023-01-30T05:41:14.303Z,18.40
2023-01-30T05:43:42.361Z,15.13
2023-01-30T05:46:13.927Z,14.40
2023-01-30T05:48:41.853Z,14.60
2023-01-30T05:51:26.162Z,14.38
2023-01-30T05:53:54.674Z,16.77
2023-01-30T05:56:22.378Z,16.52
2023-01-30T05:58:51.726Z,13.82
2023-01-30T06:01:20.512Z,22.20
2023-01-30T06:03:49.128Z,18.73
2023-01-30T06:06:16.839Z,15.37
2023-01-30T06:08:44.550Z,14.55
2023-01-30T06:11:14.809Z,19.65
2023-01-30T06:13:43.015Z,18.45
2023-01-30T06:16:13.697Z,14.87
2023-01-30T06:18:41.862Z,17.00
2023-01-30T06:21:10.175Z,16.95
2023-01-30T06:23:39.001Z,14.85
2023-01-30T06:26:09.069Z,13.35
2023-01-30T06:28:37.700Z,18.20
2023-01-30T06:31:09.029Z,17.97
2023-01-30T06:33:36.976Z,13.05
2023-01-30T06:36:04.642Z,15.90
2023-01-30T06:38:32.193Z,18.37
2023-01-30T06:41:00.041Z,16.80
2023-01-30T06:43:27.561Z,22.03
2023-01-30T06:45:55.115Z,20.33
2023-01-30T06:48:22.963Z,18.45
2023-01-30T06:50:50.488Z,21.45
2023-01-30T06:53:18.016Z,15.45
2023-01-30T06:55:45.866Z,15.47
2023-01-30T06:58:14.985Z,21.70
2023-01-30T07:00:43.302Z,34.72
2023-01-30T07:03:15.660Z,26.33
2023-01-30T07:05:45.459Z,23.38
2023-01-30T07:08:13.798Z,21.67
2023-01-30T07:10:42.196Z,20.02
2023-01-30T07:13:09.806Z,17.98
2023-01-30T07:15:37.957Z,19.55
2023-01-30T07:18:06.278Z,16.02
2023-01-30T07:20:37.585Z,16.07
2023-01-30T07:23:12.356Z,17.67
2023-01-30T07:25:46.586Z,18.65
2023-01-30T07:28:16.664Z,18.90
2023-01-30T07:30:44.589Z,17.23
2023-01-30T07:33:12.284Z,18.80
2023-01-30T07:35:40.155Z,16.90
2023-01-30T07:38:07.748Z,14.18
2023-01-30T07:40:35.338Z,15.85
2023-01-30T07:43:07.918Z,18.20
2023-01-30T07:45:46.586Z,16.90
2023-01-30T07:48:17.364Z,17.05
2023-01-30T07:50:45.419Z,21.23
2023-01-30T07:53:15.561Z,9.98
2023-01-30T07:55:43.623Z,25.90
2023-01-30T07:58:16.000Z,21.20
2023-01-30T08:00:44.741Z,24.98
2023-01-30T08:03:14.695Z,19.98
2023-01-30T08:05:42.904Z,21.23
2023-01-30T08:08:10.621Z,19.90
2023-01-30T08:10:38.428Z,19.30
2023-01-30T08:13:06.251Z,14.98
2023-01-30T08:15:33.979Z,17.20
2023-01-30T08:18:02.522Z,15.00
2023-01-30T08:20:30.364Z,16.15
2023-01-30T08:22:59.197Z,12.37
2023-01-30T08:25:27.146Z,19.10
2023-01-30T08:27:54.795Z,13.65
2023-01-30T08:30:23.110Z,14.27
2023-01-30T08:32:51.027Z,13.75
2023-01-30T08:35:18.604Z,11.43
2023-01-30T08:37:46.247Z,13.07
2023-01-30T08:40:14.486Z,10.02
2023-01-30T08:42:45.433Z,12.37
2023-01-30T08:45:13.474Z,12.60
2023-01-30T08:47:41.267Z,13.23
2023-01-30T08:50:09.502Z,12.73
2023-01-30T08:52:36.964Z,10.93
2023-01-30T08:55:05.145Z,9.77
2023-01-30T08:57:33.470Z,9.52
2023-01-30T09:00:01.447Z,8.60
2023-01-30T09:02:29.311Z,11.48
2023-01-30T09:04:56.832Z,14.90
2023-01-30T09:07:24.333Z,11.52
2023-01-30T09:09:52.098Z,9.93
2023-01-30T09:12:19.588Z,9.73
2023-01-30T09:14:47.124Z,10.27
2023-01-30T09:17:14.952Z,9.68
2023-01-30T09:19:42.460Z,21.67
2023-01-30T09:22:09.958Z,14.38
2023-01-30T09:24:37.685Z,20.87
2023-01-30T09:27:05.201Z,16.50
2023-01-30T09:29:32.739Z,11.77
2023-01-30T09:32:00.552Z,10.68
2023-01-30T09:34:28.951Z,15.07
2023-01-30T09:37:00.120Z,15.00
2023-01-30T09:39:28.934Z,16.40
2023-01-30T09:42:05.548Z,13.82
2023-01-30T09:44:58.982Z,11.12
2023-01-30T09:47:40.733Z,10.73
2023-01-30T09:50:27.391Z,11.07
2023-01-30T09:53:30.045Z,12.27
2023-01-30T09:55:59.420Z,10.05
2023-01-30T09:58:52.819Z,10.05
2023-01-30T10:01:49.669Z,9.48
2023-01-30T10:04:36.091Z,11.00
2023-01-30T10:07:06.623Z,12.93
2023-01-30T10:10:19.864Z,10.93
2023-01-30T10:13:10.290Z,14.23
2023-01-30T10:15:40.958Z,14.25
2023-01-30T10:18:29.685Z,13.17
2023-01-30T10:21:21.745Z,12.93
2023-01-30T10:24:10.879Z,10.25
2023-01-30T10:26:42.149Z,14.90
2023-01-30T10:29:36.684Z,13.85
2023-01-30T10:32:20.106Z,12.23
2023-01-30T10:34:52.101Z,12.07
2023-01-30T10:37:58.211Z,12.00
2023-01-30T10:40:30.813Z,10.50
2023-01-30T10:43:17.610Z,12.63
2023-01-30T10:46:03.773Z,14.60
2023-01-30T10:48:46.874Z,15.45
2023-01-30T10:51:23.883Z,12.68
2023-01-30T10:53:55.500Z,13.70
2023-01-30T10:56:28.140Z,13.77
2023-01-30T10:59:17.961Z,13.53
2023-01-30T11:01:57.615Z,11.52
2023-01-30T11:04:39.686Z,15.75
2023-01-30T11:07:07.567Z,11.57
2023-01-30T11:09:44.350Z,11.50
2023-01-30T11:12:12.642Z,12.53
2023-01-30T11:14:51.661Z,11.98
2023-01-30T11:17:21.433Z,12.43
2023-01-30T11:19:58.106Z,15.20
2023-01-30T11:22:27.194Z,14.02
2023-01-30T11:25:05.144Z,11.20
2023-01-30T11:27:35.318Z,11.15
2023-01-30T11:30:16.691Z,11.20
2023-01-30T11:32:47.545Z,12.82
2023-01-30T11:35:15.290Z,11.60
2023-01-30T11:37:44.425Z,15.67
2023-01-30T11:40:18.630Z,15.30
2023-01-30T11:42:52.137Z,15.82
2023-01-30T11:45:25.512Z,13.48
2023-01-30T11:47:59.145Z,13.90
2023-01-30T11:50:49.728Z,11.63
2023-01-30T11:53:31.697Z,14.38
2023-01-30T11:56:08.368Z,11.07
2023-01-30T11:58:40.355Z,12.50
2023-01-30T12:01:11.034Z,13.27
2023-01-30T12:03:58.347Z,17.53
2023-01-30T12:06:34.802Z,14.57
2023-01-30T12:09:04.024Z,16.00
2023-01-30T12:11:37.443Z,11.52
2023-01-30T12:14:13.180Z,16.52
2023-01-30T12:16:51.837Z,22.60
2023-01-30T12:19:43.625Z,17.00
2023-01-30T12:22:33.790Z,15.75
2023-01-30T12:25:12.077Z,8.93
2023-01-30T12:30:41.963Z,10.48
2023-01-30T12:33:15.489Z,13.75
2023-01-30T12:36:14.620Z,13.48
2023-01-30T12:38:51.677Z,9.13
2023-01-30T12:41:34.920Z,11.37
2023-01-30T12:44:16.112Z,10.15
2023-01-30T12:46:46.893Z,9.55
2023-01-30T12:49:35.601Z,10.27
2023-01-30T12:52:31.342Z,11.50
2023-01-30T12:55:33.811Z,14.30
2023-01-30T12:58:12.989Z,10.70
2023-01-30T13:01:01.918Z,10.30
2023-01-30T13:03:43.614Z,9.85
2023-01-30T13:06:27.709Z,10.10
2023-01-30T13:09:20.061Z,12.37
2023-01-30T13:12:01.938Z,9.70
2023-01-30T13:15:00.441Z,10.85
2023-01-30T13:17:30.879Z,13.25
2023-01-30T13:20:15.578Z,13.20
2023-01-30T13:22:55.287Z,11.90
2023-01-30T13:25:47.173Z,11.27
2023-01-30T13:28:21.952Z,11.07
2023-01-30T13:30:52.437Z,10.35
2023-01-30T13:33:24.618Z,11.95
2023-01-30T13:36:14.549Z,11.30
2023-01-30T13:38:59.743Z,11.30
2023-01-30T13:41:37.437Z,13.68
2023-01-30T13:44:27.665Z,11.25
2023-01-30T13:46:57.730Z,11.18
2023-01-30T13:49:38.954Z,10.50
2023-01-30T13:52:21.100Z,11.05
2023-01-30T13:54:56.357Z,11.88
2023-01-30T13:57:44.585Z,10.88
2023-01-30T14:00:35.162Z,11.30
2023-01-30T14:03:05.866Z,14.03
2023-01-30T14:06:02.175Z,10.85
2023-01-30T14:08:38.986Z,12.10
2023-01-30T14:11:32.402Z,11.52
2023-01-30T14:14:15.681Z,9.98
2023-01-30T14:16:50.089Z,11.27
2023-01-30T14:19:34.197Z,10.90
2023-01-30T14:22:20.281Z,13.00
2023-01-30T14:25:25.178Z,7.43
2023-01-30T14:27:55.835Z,14.95
2023-01-30T14:30:53.511Z,10.03
2023-01-30T14:33:20.950Z,12.60
2023-01-30T14:36:00.975Z,15.85
2023-01-30T14:38:33.115Z,8.45
2023-01-30T14:41:00.942Z,13.35
2023-01-30T14:43:52.574Z,11.10
2023-01-30T14:46:20.698Z,9.75
2023-01-30T14:48:50.085Z,12.02
2023-01-30T14:51:20.873Z,11.82
2023-01-30T14:53:56.523Z,12.60
2023-01-30T14:56:58.766Z,11.80
2023-01-30T14:59:34.616Z,11.02
2023-01-30T15:02:05.220Z,11.43
2023-01-30T15:04:53.384Z,12.43
2023-01-30T15:07:23.605Z,13.15
2023-01-30T15:10:13.913Z,11.73
2023-01-30T15:13:23.379Z,12.10
2023-01-30T15:15:59.956Z,17.02
2023-01-30T15:18:48.987Z,11.57
2023-01-30T15:21:37.289Z,11.07
2023-01-30T15:24:10.398Z,9.73
2023-01-30T15:26:56.192Z,12.05
2023-01-30T15:30:01.041Z,10.73
2023-01-30T15:32:31.783Z,17.17
2023-01-30T15:35:20.948Z,13.75
2023-01-30T15:37:57.224Z,16.00
2023-01-30T15:40:29.849Z,18.02
2023-01-30T15:43:14.470Z,13.98
2023-01-30T15:46:04.229Z,13.75
2023-01-30T15:49:07.678Z,15.30
2023-01-30T15:51:35.351Z,19.63
2023-01-30T15:54:10.478Z,21.73
2023-01-30T15:56:40.505Z,30.20
2023-01-30T15:59:21.941Z,23.65
2023-01-30T16:01:59.694Z,17.92
2023-01-30T16:04:31.002Z,21.47
2023-01-30T16:06:58.628Z,19.05
2023-01-30T16:09:26.661Z,19.45
2023-01-30T16:11:54.527Z,22.20
2023-01-30T16:14:22.846Z,15.30
2023-01-30T16:16:57.832Z,13.33
2023-01-30T16:19:29.680Z,10.27
2023-01-30T16:22:01.223Z,14.00
2023-01-30T16:24:32.900Z,14.25
2023-01-30T16:27:03.581Z,12.80
2023-01-30T16:29:33.939Z,10.63
2023-01-30T16:32:01.828Z,14.82
2023-01-30T16:34:35.507Z,16.33
2023-01-30T16:37:18.448Z,16.87
2023-01-30T16:39:58.345Z,18.30
2023-01-30T16:42:28.854Z,21.37
2023-01-30T16:45:16.066Z,19.33
2023-01-30T16:47:44.042Z,18.92
2023-01-30T16:50:22.998Z,14.52
2023-01-30T16:52:53.648Z,16.70
2023-01-30T16:55:23.905Z,14.13
2023-01-30T16:58:04.073Z,13.73
2023-01-30T17:00:40.168Z,16.27
2023-01-30T17:03:29.895Z,18.30
2023-01-30T17:05:59.515Z,13.60
2023-01-30T17:08:39.942Z,15.13
2023-01-30T17:11:07.538Z,17.20
2023-01-30T17:13:37.785Z,17.58
2023-01-30T17:16:23.594Z,19.83
2023-01-30T17:18:56.586Z,23.95
2023-01-30T17:21:27.702Z,32.00
2023-01-30T17:24:00.370Z,46.97
2023-01-30T17:26:28.590Z,27.25
2023-01-30T17:28:56.584Z,24.15
2023-01-30T17:31:24.349Z,22.58
2023-01-30T17:33:51.925Z,18.30
2023-01-30T17:36:24.368Z,17.67
2023-01-30T17:38:52.277Z,19.62
2023-01-30T17:41:30.262Z,19.05
2023-01-30T17:43:58.177Z,16.77
2023-01-30T17:46:44.684Z,13.93
2023-01-30T17:49:16.512Z,15.07
2023-01-30T17:51:45.021Z,13.10
2023-01-30T17:54:13.406Z,15.48
2023-01-30T17:56:42.437Z,15.23
2023-01-30T17:59:19.232Z,13.60
2023-01-30T18:01:50.115Z,15.93
2023-01-30T18:04:19.554Z,15.75
2023-01-30T18:06:53.952Z,15.70
2023-01-30T18:09:23.726Z,14.75
2023-01-30T18:11:51.767Z,18.03
2023-01-30T18:14:19.475Z,13.70
2023-01-30T18:16:47.713Z,18.95
2023-01-30T18:19:24.115Z,13.57
2023-01-30T18:21:52.528Z,15.75
2023-01-30T18:24:20.640Z,17.83
2023-01-30T18:26:48.256Z,16.12
2023-01-30T18:29:16.449Z,19.73
2023-01-30T18:31:44.094Z,15.52
2023-01-30T18:34:11.867Z,15.27
2023-01-30T18:36:40.097Z,16.50
2023-01-30T18:39:07.705Z,16.23
2023-01-30T18:41:38.318Z,15.57
2023-01-30T18:44:07.669Z,16.98
2023-01-30T18:46:35.334Z,15.63
2023-01-30T18:49:02.895Z,29.10
2023-01-30T18:51:34.086Z,29.10
2023-01-30T18:54:02.584Z,24.40
2023-01-30T18:56:33.127Z,23.05
2023-01-30T18:59:04.196Z,22.05
2023-01-30T19:01:42.534Z,21.13
2023-01-30T19:04:11.838Z,17.92
2023-01-30T19:06:43.263Z,17.02
2023-01-30T19:09:16.535Z,12.43
2023-01-30T19:12:02.903Z,15.23
2023-01-30T19:14:30.689Z,17.70
2023-01-30T19:16:58.215Z,14.77
2023-01-30T19:19:25.987Z,13.57
2023-01-30T19:21:53.937Z,12.35
2023-01-30T19:24:21.437Z,14.40
2023-01-30T19:26:49.160Z,14.73
2023-01-30T19:29:18.402Z,21.23
2023-01-30T19:31:47.396Z,19.55
2023-01-30T19:34:15.079Z,15.35
2023-01-30T19:36:42.972Z,19.45
2023-01-30T19:39:10.700Z,21.27
2023-01-30T19:41:38.342Z,19.58
2023-01-30T19:44:08.347Z,16.90
2023-01-30T19:46:36.268Z,17.55
2023-01-30T19:49:04.593Z,21.10
2023-01-30T19:51:34.912Z,35.10
2023-01-30T19:54:08.033Z,51.15
2023-01-30T19:56:38.515Z,51.05
2023-01-30T19:59:06.071Z,50.33
2023-01-30T20:01:37.103Z,39.63
2023-01-30T20:04:05.386Z,29.17
2023-01-30T20:06:35.023Z,26.73
2023-01-30T20:09:06.951Z,23.67
2023-01-30T20:11:36.900Z,20.73
2023-01-30T20:14:06.925Z,20.42
2023-01-30T20:16:35.856Z,19.30
2023-01-30T20:19:08.762Z,22.40
2023-01-30T20:21:36.680Z,27.95
2023-01-30T20:24:05.165Z,33.33
2023-01-30T20:26:35.593Z,22.92
2023-01-30T20:29:04.582Z,25.40
2023-01-30T20:31:32.522Z,21.15
2023-01-30T20:34:06.065Z,20.85
2023-01-30T20:36:34.356Z,17.85
2023-01-30T20:39:04.121Z,18.17
2023-01-30T20:41:33.480Z,17.87
2023-01-30T20:44:01.647Z,19.48
2023-01-30T20:46:34.477Z,23.12
2023-01-30T20:49:02.420Z,29.15
2023-01-30T20:51:32.118Z,29.45
2023-01-30T20:54:02.041Z,24.10
2023-01-30T20:56:45.404Z,19.52
2023-01-30T20:59:15.704Z,24.58
2023-01-30T21:01:44.777Z,19.15
2023-01-30T21:04:14.797Z,19.60
2023-01-30T21:06:45.700Z,18.37
2023-01-30T21:09:22.736Z,16.98
2023-01-30T21:11:52.687Z,18.70
2023-01-30T21:14:21.125Z,21.73
2023-01-30T21:16:49.096Z,18.67
2023-01-30T21:19:17.497Z,19.87
2023-01-30T21:21:55.953Z,18.67
2023-01-30T21:24:28.835Z,16.35
2023-01-30T21:26:57.216Z,16.15
2023-01-30T21:29:26.713Z,17.30
2023-01-30T21:31:55.667Z,18.73
2023-01-30T21:34:24.058Z,16.40
2023-01-30T21:37:10.365Z,16.02
2023-01-30T21:39:57.616Z,18.65
2023-01-30T21:42:43.796Z,20.90
2023-01-30T21:45:11.602Z,24.07
2023-01-30T21:47:39.176Z,24.37
2023-01-30T21:50:06.982Z,24.50
2023-01-30T21:52:34.805Z,20.77
2023-01-30T21:55:02.440Z,21.48
2023-01-30T21:57:29.987Z,19.40
2023-01-30T21:59:57.811Z,18.92
2023-01-30T22:02:25.303Z,16.95
2023-01-30T22:04:53.109Z,18.83
2023-01-30T22:07:20.584Z,18.40
2023-01-30T22:09:48.958Z,18.70
2023-01-30T22:12:16.750Z,20.73
2023-01-30T22:14:44.253Z,20.45
2023-01-30T22:17:11.792Z,18.05
2023-01-30T22:19:39.756Z,20.20
2023-01-30T22:22:07.360Z,19.20
2023-01-30T22:24:36.148Z,18.27
2023-01-30T22:27:04.155Z,18.85
2023-01-30T22:29:31.665Z,18.17
2023-01-30T22:31:59.199Z,19.20
2023-01-30T22:34:27.076Z,16.87
2023-01-30T22:36:54.843Z,20.15
2023-01-30T22:39:22.310Z,17.65
2023-01-30T22:41:50.743Z,20.30
2023-01-30T22:44:18.242Z,16.98
2023-01-30T22:46:45.806Z,21.17
2023-01-30T22:49:13.661Z,18.10
2023-01-30T22:51:43.223Z,23.85
2023-01-30T22:54:17.117Z,18.12
2023-01-30T22:56:46.899Z,20.33
2023-01-30T22:59:15.114Z,17.10
2023-01-30T23:01:45.016Z,25.62
2023-01-30T23:04:18.617Z,25.73
2023-01-30T23:06:47.790Z,23.42
2023-01-30T23:09:19.335Z,19.37
2023-01-30T23:12:11.001Z,19.70
2023-01-30T23:14:39.685Z,19.73
2023-01-30T23:17:26.516Z,18.27
2023-01-30T23:19:55.199Z,19.12
2023-01-30T23:22:23.098Z,23.48
2023-01-30T23:24:51.499Z,20.80
2023-01-30T23:27:20.266Z,20.05
2023-01-30T23:29:47.865Z,19.00
2023-01-30T23:32:19.092Z,17.70
2023-01-30T23:34:47.774Z,20.58
2023-01-30T23:37:16.184Z,18.97
2023-01-30T23:39:44.584Z,18.05
2023-01-30T23:42:12.400Z,17.25
2023-01-30T23:44:40.205Z,19.60
2023-01-30T23:47:07.743Z,20.65
2023-01-30T23:49:35.548Z,18.87
2023-01-30T23:52:03.100Z,18.15
2023-01-30T23:54:30.695Z,17.35
2023-01-30T23:56:58.521Z,19.48
2023-01-30T23:59:26.626Z,18.67
